Terminal Aerodrome Forecast
Issued by NWS Mt. Holly, NJ

Home | Current Version | Previous Version | Text Only | Print | Product List | Glossary On
Versions: 1 2 3 4 5 6 7 8 9 10 11 12 13 14 15 16 17 18 19 20 21 22 23 24 25 26 27 28 29 30 31 32 33 34 35 36 37 38
000
FTUS41 KPHI 262000 AAB
TAFPHL
TAF AMD
KPHL 262026Z 2620/2724 04019G29KT 5SM -SN SCT015 OVC025
      TEMPO 2621/2622 3SM -SN BKN015
     FM262200 04019G29KT 1SM -SN OVC007
     FM270000 02020G28KT 1/2SM SN FG OVC005
     FM271600 35018G28KT 3SM -SN BLSN OVC010
     FM272100 32015G26KT P6SM SCT015 BKN025=

USA.gov is the U.S. government's official web portal to all federal, state and local government web resources and services.